sensor_id;sensor_type;location;lat;lon;timestamp;P1;durP1;ratioP1;P2;durP2;ratioP2
34900;SDS011;21112;51.976;5.660;2022-12-07T00:29:50;6.35;;;2.90;;
34900;SDS011;21112;51.976;5.660;2022-12-07T00:32:16;6.28;;;3.20;;
34900;SDS011;21112;51.976;5.660;2022-12-07T00:34:43;7.32;;;3.28;;
34900;SDS011;21112;51.976;5.660;2022-12-07T00:37:12;7.55;;;3.30;;
34900;SDS011;21112;51.976;5.660;2022-12-07T00:39:40;6.95;;;3.10;;
34900;SDS011;21112;51.976;5.660;2022-12-07T00:42:07;8.38;;;3.63;;
34900;SDS011;21112;51.976;5.660;2022-12-07T00:44:34;7.85;;;3.15;;
34900;SDS011;21112;51.976;5.660;2022-12-07T00:47:05;9.15;;;3.95;;
34900;SDS011;21112;51.976;5.660;2022-12-07T00:49:33;7.05;;;3.53;;
34900;SDS011;21112;51.976;5.660;2022-12-07T00:52:00;7.28;;;3.10;;
34900;SDS011;21112;51.976;5.660;2022-12-07T00:54:26;6.57;;;3.40;;
34900;SDS011;21112;51.976;5.660;2022-12-07T00:56:53;9.73;;;3.83;;
34900;SDS011;21112;51.976;5.660;2022-12-07T00:59:27;7.05;;;3.28;;
34900;SDS011;21112;51.976;5.660;2022-12-07T01:01:54;10.98;;;3.60;;
34900;SDS011;21112;51.976;5.660;2022-12-07T01:04:40;6.97;;;3.42;;
34900;SDS011;21112;51.976;5.660;2022-12-07T01:07:06;8.17;;;3.80;;
34900;SDS011;21112;51.976;5.660;2022-12-07T01:09:33;7.13;;;3.35;;
34900;SDS011;21112;51.976;5.660;2022-12-07T01:11:59;7.72;;;3.50;;
34900;SDS011;21112;51.976;5.660;2022-12-07T01:14:26;5.80;;;2.95;;
34900;SDS011;21112;51.976;5.660;2022-12-07T01:16:52;7.25;;;3.00;;
34900;SDS011;21112;51.976;5.660;2022-12-07T01:19:20;9.38;;;3.10;;
34900;SDS011;21112;51.976;5.660;2022-12-07T01:21:48;6.35;;;3.00;;
34900;SDS011;21112;51.976;5.660;2022-12-07T01:24:15;7.22;;;3.40;;
34900;SDS011;21112;51.976;5.660;2022-12-07T01:26:42;6.28;;;3.08;;
34900;SDS011;21112;51.976;5.660;2022-12-07T01:29:08;5.55;;;2.90;;
34900;SDS011;21112;51.976;5.660;2022-12-07T01:31:35;6.97;;;3.25;;
34900;SDS011;21112;51.976;5.660;2022-12-07T01:34:01;7.78;;;3.60;;
34900;SDS011;21112;51.976;5.660;2022-12-07T01:36:29;6.97;;;3.03;;
34900;SDS011;21112;51.976;5.660;2022-12-07T01:38:59;8.43;;;3.13;;
34900;SDS011;21112;51.976;5.660;2022-12-07T01:41:26;7.43;;;3.03;;
34900;SDS011;21112;51.976;5.660;2022-12-07T01:44:10;6.13;;;2.88;;
34900;SDS011;21112;51.976;5.660;2022-12-07T01:46:37;8.05;;;2.90;;
34900;SDS011;21112;51.976;5.660;2022-12-07T01:49:04;7.70;;;3.35;;
34900;SDS011;21112;51.976;5.660;2022-12-07T01:51:31;6.82;;;3.13;;
34900;SDS011;21112;51.976;5.660;2022-12-07T01:53:59;6.82;;;3.20;;
34900;SDS011;21112;51.976;5.660;2022-12-07T01:56:26;9.43;;;3.45;;
34900;SDS011;21112;51.976;5.660;2022-12-07T01:58:54;8.40;;;2.92;;
34900;SDS011;21112;51.976;5.660;2022-12-07T02:01:21;7.25;;;2.90;;
34900;SDS011;21112;51.976;5.660;2022-12-07T02:03:47;7.30;;;2.90;;
34900;SDS011;21112;51.976;5.660;2022-12-07T02:06:15;4.97;;;2.55;;
34900;SDS011;21112;51.976;5.660;2022-12-07T02:08:42;6.28;;;2.80;;
34900;SDS011;21112;51.976;5.660;2022-12-07T02:11:12;8.35;;;3.42;;
34900;SDS011;21112;51.976;5.660;2022-12-07T02:13:39;6.82;;;3.00;;
34900;SDS011;21112;51.976;5.660;2022-12-07T02:16:13;6.78;;;3.10;;
34900;SDS011;21112;51.976;5.660;2022-12-07T02:18:45;5.60;;;2.60;;
34900;SDS011;21112;51.976;5.660;2022-12-07T02:21:15;5.57;;;2.58;;
34900;SDS011;21112;51.976;5.660;2022-12-07T02:23:51;6.93;;;2.80;;
34900;SDS011;21112;51.976;5.660;2022-12-07T02:26:35;6.68;;;2.55;;
34900;SDS011;21112;51.976;5.660;2022-12-07T02:29:12;8.80;;;3.08;;
34900;SDS011;21112;51.976;5.660;2022-12-07T02:31:43;9.98;;;2.50;;
34900;SDS011;21112;51.976;5.660;2022-12-07T02:34:12;4.90;;;2.72;;
34900;SDS011;21112;51.976;5.660;2022-12-07T02:36:45;5.70;;;2.75;;
34900;SDS011;21112;51.976;5.660;2022-12-07T02:41:40;8.07;;;2.67;;
34900;SDS011;21112;51.976;5.660;2022-12-07T02:44:10;5.38;;;2.53;;
34900;SDS011;21112;51.976;5.660;2022-12-07T02:46:40;5.00;;;2.55;;
34900;SDS011;21112;51.976;5.660;2022-12-07T02:51:54;6.47;;;2.60;;
34900;SDS011;21112;51.976;5.660;2022-12-07T02:54:22;5.28;;;2.42;;
34900;SDS011;21112;51.976;5.660;2022-12-07T02:56:49;6.72;;;2.53;;
34900;SDS011;21112;51.976;5.660;2022-12-07T02:59:17;6.15;;;2.53;;
34900;SDS011;21112;51.976;5.660;2022-12-07T03:01:50;5.80;;;2.40;;
34900;SDS011;21112;51.976;5.660;2022-12-07T03:04:24;6.50;;;2.80;;
34900;SDS011;21112;51.976;5.660;2022-12-07T03:06:59;6.63;;;2.70;;
34900;SDS011;21112;51.976;5.660;2022-12-07T03:09:27;5.47;;;2.72;;
34900;SDS011;21112;51.976;5.660;2022-12-07T03:11:59;7.10;;;2.63;;
34900;SDS011;21112;51.976;5.660;2022-12-07T03:14:29;5.03;;;2.47;;
34900;SDS011;21112;51.976;5.660;2022-12-07T03:16:58;5.05;;;2.42;;
34900;SDS011;21112;51.976;5.660;2022-12-07T03:19:28;5.30;;;2.40;;
34900;SDS011;21112;51.976;5.660;2022-12-07T03:21:58;5.00;;;2.33;;
34900;SDS011;21112;51.976;5.660;2022-12-07T03:26:52;5.32;;;2.40;;
34900;SDS011;21112;51.976;5.660;2022-12-07T03:29:21;4.10;;;2.08;;
34900;SDS011;21112;51.976;5.660;2022-12-07T03:31:51;6.43;;;2.17;;
34900;SDS011;21112;51.976;5.660;2022-12-07T03:34:21;5.85;;;2.53;;
34900;SDS011;21112;51.976;5.660;2022-12-07T03:36:52;5.30;;;2.50;;
34900;SDS011;21112;51.976;5.660;2022-12-07T03:39:21;5.95;;;2.30;;
34900;SDS011;21112;51.976;5.660;2022-12-07T03:41:49;5.40;;;2.55;;
34900;SDS011;21112;51.976;5.660;2022-12-07T03:44:16;6.22;;;2.30;;
34900;SDS011;21112;51.976;5.660;2022-12-07T03:46:44;5.20;;;2.15;;
34900;SDS011;21112;51.976;5.660;2022-12-07T03:49:18;6.68;;;2.15;;
34900;SDS011;21112;51.976;5.660;2022-12-07T03:51:51;5.15;;;2.40;;
34900;SDS011;21112;51.976;5.660;2022-12-07T03:54:21;5.85;;;2.55;;
34900;SDS011;21112;51.976;5.660;2022-12-07T03:56:50;4.25;;;2.17;;
34900;SDS011;21112;51.976;5.660;2022-12-07T03:59:16;3.80;;;1.92;;
34900;SDS011;21112;51.976;5.660;2022-12-07T04:01:43;4.75;;;2.20;;
34900;SDS011;21112;51.976;5.660;2022-12-07T04:04:10;4.75;;;2.10;;
34900;SDS011;21112;51.976;5.660;2022-12-07T04:06:36;5.30;;;2.20;;
34900;SDS011;21112;51.976;5.660;2022-12-07T04:09:07;6.20;;;2.30;;
34900;SDS011;21112;51.976;5.660;2022-12-07T04:11:36;3.25;;;1.70;;
34900;SDS011;21112;51.976;5.660;2022-12-07T04:14:03;3.90;;;2.00;;
34900;SDS011;21112;51.976;5.660;2022-12-07T04:16:44;3.90;;;1.88;;
34900;SDS011;21112;51.976;5.660;2022-12-07T04:19:11;4.00;;;2.08;;
34900;SDS011;21112;51.976;5.660;2022-12-07T04:21:38;4.80;;;2.33;;
34900;SDS011;21112;51.976;5.660;2022-12-07T04:24:06;4.57;;;2.10;;
34900;SDS011;21112;51.976;5.660;2022-12-07T04:26:33;5.25;;;1.92;;
34900;SDS011;21112;51.976;5.660;2022-12-07T04:28:59;4.28;;;1.98;;
34900;SDS011;21112;51.976;5.660;2022-12-07T04:31:26;4.13;;;2.17;;
34900;SDS011;21112;51.976;5.660;2022-12-07T04:33:53;4.82;;;2.03;;
34900;SDS011;21112;51.976;5.660;2022-12-07T04:36:20;4.82;;;2.10;;
34900;SDS011;21112;51.976;5.660;2022-12-07T04:38:47;3.13;;;1.85;;
34900;SDS011;21112;51.976;5.660;2022-12-07T04:41:15;4.80;;;2.28;;
34900;SDS011;21112;51.976;5.660;2022-12-07T04:43:42;3.88;;;1.80;;
34900;SDS011;21112;51.976;5.660;2022-12-07T04:46:08;5.00;;;2.10;;
34900;SDS011;21112;51.976;5.660;2022-12-07T04:48:35;5.75;;;1.75;;
34900;SDS011;21112;51.976;5.660;2022-12-07T04:51:02;4.72;;;1.98;;
34900;SDS011;21112;51.976;5.660;2022-12-07T04:53:30;7.22;;;1.85;;
34900;SDS011;21112;51.976;5.660;2022-12-07T04:55:57;4.15;;;1.70;;
34900;SDS011;21112;51.976;5.660;2022-12-07T04:58:25;3.88;;;1.92;;
34900;SDS011;21112;51.976;5.660;2022-12-07T05:03:21;3.33;;;1.65;;
34900;SDS011;21112;51.976;5.660;2022-12-07T05:05:48;3.60;;;1.80;;
34900;SDS011;21112;51.976;5.660;2022-12-07T05:08:15;3.35;;;1.60;;
34900;SDS011;21112;51.976;5.660;2022-12-07T05:10:41;4.18;;;1.80;;
34900;SDS011;21112;51.976;5.660;2022-12-07T05:13:09;3.90;;;1.83;;
34900;SDS011;21112;51.976;5.660;2022-12-07T05:15:37;2.92;;;1.73;;
34900;SDS011;21112;51.976;5.660;2022-12-07T05:18:04;4.47;;;1.60;;
34900;SDS011;21112;51.976;5.660;2022-12-07T05:20:33;3.78;;;1.83;;
34900;SDS011;21112;51.976;5.660;2022-12-07T05:22:59;3.53;;;1.63;;
34900;SDS011;21112;51.976;5.660;2022-12-07T05:25:26;2.85;;;1.42;;
34900;SDS011;21112;51.976;5.660;2022-12-07T05:27:54;4.03;;;1.70;;
34900;SDS011;21112;51.976;5.660;2022-12-07T05:30:21;3.47;;;1.50;;
34900;SDS011;21112;51.976;5.660;2022-12-07T05:32:49;4.43;;;1.90;;
34900;SDS011;21112;51.976;5.660;2022-12-07T05:35:15;3.33;;;1.42;;
34900;SDS011;21112;51.976;5.660;2022-12-07T05:37:42;5.03;;;1.75;;
34900;SDS011;21112;51.976;5.660;2022-12-07T05:40:09;3.75;;;1.60;;
34900;SDS011;21112;51.976;5.660;2022-12-07T05:42:38;4.15;;;1.63;;
34900;SDS011;21112;51.976;5.660;2022-12-07T05:45:08;3.85;;;1.65;;
34900;SDS011;21112;51.976;5.660;2022-12-07T05:47:35;3.78;;;1.50;;
34900;SDS011;21112;51.976;5.660;2022-12-07T05:50:04;2.72;;;1.38;;
34900;SDS011;21112;51.976;5.660;2022-12-07T05:52:32;4.13;;;1.30;;
34900;SDS011;21112;51.976;5.660;2022-12-07T05:54:58;2.63;;;1.30;;
34900;SDS011;21112;51.976;5.660;2022-12-07T05:57:25;4.07;;;1.48;;
34900;SDS011;21112;51.976;5.660;2022-12-07T05:59:52;3.00;;;1.45;;
34900;SDS011;21112;51.976;5.660;2022-12-07T06:02:17;3.22;;;1.60;;
34900;SDS011;21112;51.976;5.660;2022-12-07T06:04:44;4.38;;;1.45;;
34900;SDS011;21112;51.976;5.660;2022-12-07T06:07:14;4.45;;;1.55;;
34900;SDS011;21112;51.976;5.660;2022-12-07T06:09:41;3.22;;;1.55;;
34900;SDS011;21112;51.976;5.660;2022-12-07T06:12:09;3.25;;;1.45;;
34900;SDS011;21112;51.976;5.660;2022-12-07T06:14:53;4.30;;;1.67;;
34900;SDS011;21112;51.976;5.660;2022-12-07T06:17:20;3.60;;;1.58;;
34900;SDS011;21112;51.976;5.660;2022-12-07T06:19:46;2.90;;;1.50;;
34900;SDS011;21112;51.976;5.660;2022-12-07T06:22:15;2.72;;;1.45;;
34900;SDS011;21112;51.976;5.660;2022-12-07T06:27:08;1.97;;;1.20;;
34900;SDS011;21112;51.976;5.660;2022-12-07T06:29:35;2.88;;;1.50;;
34900;SDS011;21112;51.976;5.660;2022-12-07T06:32:04;2.20;;;1.08;;
34900;SDS011;21112;51.976;5.660;2022-12-07T06:34:32;3.28;;;1.50;;
34900;SDS011;21112;51.976;5.660;2022-12-07T06:36:59;2.50;;;1.30;;
34900;SDS011;21112;51.976;5.660;2022-12-07T06:39:28;2.00;;;1.23;;
34900;SDS011;21112;51.976;5.660;2022-12-07T06:41:55;4.72;;;1.95;;
34900;SDS011;21112;51.976;5.660;2022-12-07T06:44:22;3.80;;;1.52;;
34900;SDS011;21112;51.976;5.660;2022-12-07T06:46:48;3.15;;;1.42;;
34900;SDS011;21112;51.976;5.660;2022-12-07T06:49:15;3.65;;;1.48;;
34900;SDS011;21112;51.976;5.660;2022-12-07T06:51:44;3.22;;;1.42;;
34900;SDS011;21112;51.976;5.660;2022-12-07T06:54:12;3.65;;;1.60;;
34900;SDS011;21112;51.976;5.660;2022-12-07T06:56:41;4.88;;;1.50;;
34900;SDS011;21112;51.976;5.660;2022-12-07T06:59:07;4.45;;;1.50;;
34900;SDS011;21112;51.976;5.660;2022-12-07T07:01:35;3.40;;;1.42;;
34900;SDS011;21112;51.976;5.660;2022-12-07T07:04:02;3.75;;;1.52;;
34900;SDS011;21112;51.976;5.660;2022-12-07T07:06:29;5.10;;;1.35;;
34900;SDS011;21112;51.976;5.660;2022-12-07T07:08:55;4.25;;;1.63;;
34900;SDS011;21112;51.976;5.660;2022-12-07T07:11:22;6.13;;;1.58;;
34900;SDS011;21112;51.976;5.660;2022-12-07T07:13:50;2.53;;;1.20;;
34900;SDS011;21112;51.976;5.660;2022-12-07T07:16:17;3.05;;;1.20;;
34900;SDS011;21112;51.976;5.660;2022-12-07T07:18:43;8.60;;;2.42;;
34900;SDS011;21112;51.976;5.660;2022-12-07T07:21:13;2.72;;;1.10;;
34900;SDS011;21112;51.976;5.660;2022-12-07T07:23:40;3.72;;;1.27;;
34900;SDS011;21112;51.976;5.660;2022-12-07T07:26:06;3.30;;;1.20;;
34900;SDS011;21112;51.976;5.660;2022-12-07T07:28:33;3.13;;;1.40;;
34900;SDS011;21112;51.976;5.660;2022-12-07T07:31:01;2.60;;;1.13;;
34900;SDS011;21112;51.976;5.660;2022-12-07T07:33:33;5.32;;;1.42;;
34900;SDS011;21112;51.976;5.660;2022-12-07T07:36:00;2.35;;;1.00;;
34900;SDS011;21112;51.976;5.660;2022-12-07T07:38:30;3.85;;;1.40;;
34900;SDS011;21112;51.976;5.660;2022-12-07T07:40:59;1.88;;;1.27;;
34900;SDS011;21112;51.976;5.660;2022-12-07T07:43:25;3.42;;;1.48;;
34900;SDS011;21112;51.976;5.660;2022-12-07T07:45:52;2.03;;;1.00;;
34900;SDS011;21112;51.976;5.660;2022-12-07T07:48:22;3.38;;;1.10;;
34900;SDS011;21112;51.976;5.660;2022-12-07T07:50:50;2.67;;;1.40;;
34900;SDS011;21112;51.976;5.660;2022-12-07T07:53:18;2.13;;;1.00;;
34900;SDS011;21112;51.976;5.660;2022-12-07T07:55:50;2.60;;;1.23;;
34900;SDS011;21112;51.976;5.660;2022-12-07T07:58:20;4.40;;;1.13;;
34900;SDS011;21112;51.976;5.660;2022-12-07T08:00:47;2.63;;;1.20;;
34900;SDS011;21112;51.976;5.660;2022-12-07T08:03:17;3.22;;;1.20;;
34900;SDS011;21112;51.976;5.660;2022-12-07T08:08:13;2.33;;;1.10;;
34900;SDS011;21112;51.976;5.660;2022-12-07T08:10:40;2.83;;;1.20;;
34900;SDS011;21112;51.976;5.660;2022-12-07T08:13:07;2.83;;;1.20;;
34900;SDS011;21112;51.976;5.660;2022-12-07T08:15:39;4.18;;;1.55;;
34900;SDS011;21112;51.976;5.660;2022-12-07T08:18:06;3.55;;;1.20;;
34900;SDS011;21112;51.976;5.660;2022-12-07T08:20:34;3.70;;;1.50;;
34900;SDS011;21112;51.976;5.660;2022-12-07T08:23:09;3.78;;;1.33;;
34900;SDS011;21112;51.976;5.660;2022-12-07T08:25:38;3.53;;;1.20;;
34900;SDS011;21112;51.976;5.660;2022-12-07T08:28:08;2.97;;;1.20;;
34900;SDS011;21112;51.976;5.660;2022-12-07T08:30:37;2.90;;;1.52;;
34900;SDS011;21112;51.976;5.660;2022-12-07T08:33:08;2.80;;;1.30;;
34900;SDS011;21112;51.976;5.660;2022-12-07T08:35:59;2.40;;;1.13;;
34900;SDS011;21112;51.976;5.660;2022-12-07T08:38:31;3.58;;;1.50;;
34900;SDS011;21112;51.976;5.660;2022-12-07T08:41:00;2.05;;;1.10;;
34900;SDS011;21112;51.976;5.660;2022-12-07T08:43:28;2.47;;;1.20;;
34900;SDS011;21112;51.976;5.660;2022-12-07T08:46:00;3.22;;;1.30;;
34900;SDS011;21112;51.976;5.660;2022-12-07T08:48:32;2.67;;;1.20;;
34900;SDS011;21112;51.976;5.660;2022-12-07T08:50:59;6.15;;;1.48;;
34900;SDS011;21112;51.976;5.660;2022-12-07T08:53:29;2.33;;;1.15;;
34900;SDS011;21112;51.976;5.660;2022-12-07T08:56:03;3.78;;;1.77;;
34900;SDS011;21112;51.976;5.660;2022-12-07T08:58:30;4.13;;;1.10;;
34900;SDS011;21112;51.976;5.660;2022-12-07T09:00:57;2.10;;;1.30;;
34900;SDS011;21112;51.976;5.660;2022-12-07T09:03:33;3.33;;;1.17;;
34900;SDS011;21112;51.976;5.660;2022-12-07T09:06:00;2.72;;;1.42;;
34900;SDS011;21112;51.976;5.660;2022-12-07T09:08:28;3.28;;;1.25;;
34900;SDS011;21112;51.976;5.660;2022-12-07T09:11:00;5.60;;;1.13;;
34900;SDS011;21112;51.976;5.660;2022-12-07T09:13:36;2.58;;;1.10;;
34900;SDS011;21112;51.976;5.660;2022-12-07T09:16:06;2.30;;;0.98;;
34900;SDS011;21112;51.976;5.660;2022-12-07T09:18:35;2.35;;;0.98;;
34900;SDS011;21112;51.976;5.660;2022-12-07T09:21:08;4.03;;;1.40;;
34900;SDS011;21112;51.976;5.660;2022-12-07T09:23:40;3.38;;;1.13;;
34900;SDS011;21112;51.976;5.660;2022-12-07T09:26:27;2.33;;;1.10;;
34900;SDS011;21112;51.976;5.660;2022-12-07T09:36:30;2.70;;;1.05;;
34900;SDS011;21112;51.976;5.660;2022-12-07T09:39:10;1.58;;;1.00;;
34900;SDS011;21112;51.976;5.660;2022-12-07T09:41:44;2.25;;;0.82;;
34900;SDS011;21112;51.976;5.660;2022-12-07T09:47:12;1.98;;;0.95;;
34900;SDS011;21112;51.976;5.660;2022-12-07T09:49:41;4.70;;;1.10;;
34900;SDS011;21112;51.976;5.660;2022-12-07T09:52:16;2.47;;;1.10;;
34900;SDS011;21112;51.976;5.660;2022-12-07T09:57:45;4.10;;;0.90;;
34900;SDS011;21112;51.976;5.660;2022-12-07T10:00:13;2.92;;;1.02;;
34900;SDS011;21112;51.976;5.660;2022-12-07T10:02:42;2.00;;;0.93;;
34900;SDS011;21112;51.976;5.660;2022-12-07T10:05:12;4.25;;;1.20;;
34900;SDS011;21112;51.976;5.660;2022-12-07T10:07:45;1.73;;;0.90;;
34900;SDS011;21112;51.976;5.660;2022-12-07T10:10:15;2.80;;;1.20;;
34900;SDS011;21112;51.976;5.660;2022-12-07T10:12:59;1.77;;;0.90;;
34900;SDS011;21112;51.976;5.660;2022-12-07T10:18:30;3.55;;;1.05;;
34900;SDS011;21112;51.976;5.660;2022-12-07T10:21:01;2.80;;;1.10;;
34900;SDS011;21112;51.976;5.660;2022-12-07T10:23:32;2.60;;;1.02;;
34900;SDS011;21112;51.976;5.660;2022-12-07T10:25:59;3.67;;;1.00;;
34900;SDS011;21112;51.976;5.660;2022-12-07T10:28:33;2.75;;;1.00;;
34900;SDS011;21112;51.976;5.660;2022-12-07T10:31:15;3.22;;;1.10;;
34900;SDS011;21112;51.976;5.660;2022-12-07T10:33:48;3.72;;;1.08;;
34900;SDS011;21112;51.976;5.660;2022-12-07T10:36:21;2.85;;;1.10;;
34900;SDS011;21112;51.976;5.660;2022-12-07T10:38:49;1.75;;;0.82;;
34900;SDS011;21112;51.976;5.660;2022-12-07T10:41:16;3.33;;;1.08;;
34900;SDS011;21112;51.976;5.660;2022-12-07T10:43:50;3.65;;;1.05;;
34900;SDS011;21112;51.976;5.660;2022-12-07T10:46:26;2.85;;;1.13;;
34900;SDS011;21112;51.976;5.660;2022-12-07T10:48:59;3.70;;;1.05;;
34900;SDS011;21112;51.976;5.660;2022-12-07T10:51:32;4.35;;;0.88;;
34900;SDS011;21112;51.976;5.660;2022-12-07T10:54:04;1.98;;;1.10;;
34900;SDS011;21112;51.976;5.660;2022-12-07T10:56:42;2.97;;;1.20;;
34900;SDS011;21112;51.976;5.660;2022-12-07T10:59:24;4.22;;;0.85;;
34900;SDS011;21112;51.976;5.660;2022-12-07T11:01:57;2.47;;;1.33;;
34900;SDS011;21112;51.976;5.660;2022-12-07T11:04:35;4.68;;;1.33;;
34900;SDS011;21112;51.976;5.660;2022-12-07T11:07:10;3.42;;;1.20;;
34900;SDS011;21112;51.976;5.660;2022-12-07T11:12:28;2.65;;;0.95;;
34900;SDS011;21112;51.976;5.660;2022-12-07T11:15:04;3.83;;;1.13;;
34900;SDS011;21112;51.976;5.660;2022-12-07T11:17:42;3.50;;;0.90;;
34900;SDS011;21112;51.976;5.660;2022-12-07T11:20:15;3.30;;;1.00;;
34900;SDS011;21112;51.976;5.660;2022-12-07T11:22:46;2.70;;;0.98;;
34900;SDS011;21112;51.976;5.660;2022-12-07T11:25:18;4.45;;;0.90;;
34900;SDS011;21112;51.976;5.660;2022-12-07T11:27:54;3.50;;;1.02;;
34900;SDS011;21112;51.976;5.660;2022-12-07T11:30:32;5.97;;;1.00;;
34900;SDS011;21112;51.976;5.660;2022-12-07T11:33:07;1.58;;;0.88;;
34900;SDS011;21112;51.976;5.660;2022-12-07T11:35:45;4.05;;;1.10;;
34900;SDS011;21112;51.976;5.660;2022-12-07T11:38:17;8.05;;;0.95;;
34900;SDS011;21112;51.976;5.660;2022-12-07T11:40:45;3.80;;;1.13;;
34900;SDS011;21112;51.976;5.660;2022-12-07T11:43:19;4.80;;;1.00;;
34900;SDS011;21112;51.976;5.660;2022-12-07T11:45:54;6.15;;;1.05;;
34900;SDS011;21112;51.976;5.660;2022-12-07T11:48:28;3.13;;;1.00;;
34900;SDS011;21112;51.976;5.660;2022-12-07T11:50:59;5.20;;;1.33;;
34900;SDS011;21112;51.976;5.660;2022-12-07T11:53:35;6.10;;;1.38;;
34900;SDS011;21112;51.976;5.660;2022-12-07T11:56:07;3.80;;;1.20;;
34900;SDS011;21112;51.976;5.660;2022-12-07T11:58:37;2.75;;;1.00;;
34900;SDS011;21112;51.976;5.660;2022-12-07T12:01:11;4.50;;;1.15;;
34900;SDS011;21112;51.976;5.660;2022-12-07T12:03:40;3.10;;;1.27;;
34900;SDS011;21112;51.976;5.660;2022-12-07T12:06:13;4.30;;;1.38;;
34900;SDS011;21112;51.976;5.660;2022-12-07T12:08:41;1.80;;;0.98;;
34900;SDS011;21112;51.976;5.660;2022-12-07T12:11:16;2.72;;;1.23;;
34900;SDS011;21112;51.976;5.660;2022-12-07T12:13:58;4.00;;;1.13;;
34900;SDS011;21112;51.976;5.660;2022-12-07T12:16:48;3.15;;;1.27;;
34900;SDS011;21112;51.976;5.660;2022-12-07T12:19:20;2.97;;;1.15;;
34900;SDS011;21112;51.976;5.660;2022-12-07T12:21:53;2.55;;;1.10;;
34900;SDS011;21112;51.976;5.660;2022-12-07T12:24:25;2.58;;;1.20;;
34900;SDS011;21112;51.976;5.660;2022-12-07T12:26:55;4.75;;;1.20;;
34900;SDS011;21112;51.976;5.660;2022-12-07T12:29:26;3.67;;;1.20;;
34900;SDS011;21112;51.976;5.660;2022-12-07T12:32:06;4.25;;;0.98;;
34900;SDS011;21112;51.976;5.660;2022-12-07T12:34:39;3.97;;;1.10;;
34900;SDS011;21112;51.976;5.660;2022-12-07T12:42:43;4.35;;;1.20;;
34900;SDS011;21112;51.976;5.660;2022-12-07T12:45:20;4.90;;;1.35;;
34900;SDS011;21112;51.976;5.660;2022-12-07T12:47:57;3.20;;;1.27;;
34900;SDS011;21112;51.976;5.660;2022-12-07T12:50:27;4.93;;;1.23;;
34900;SDS011;21112;51.976;5.660;2022-12-07T12:58:44;4.55;;;1.23;;
34900;SDS011;21112;51.976;5.660;2022-12-07T13:01:36;2.70;;;1.05;;
34900;SDS011;21112;51.976;5.660;2022-12-07T13:04:23;3.33;;;1.10;;
34900;SDS011;21112;51.976;5.660;2022-12-07T13:06:53;8.90;;;1.23;;
34900;SDS011;21112;51.976;5.660;2022-12-07T13:09:23;3.65;;;1.15;;
34900;SDS011;21112;51.976;5.660;2022-12-07T13:11:55;6.47;;;1.08;;
34900;SDS011;21112;51.976;5.660;2022-12-07T13:14:52;3.88;;;0.90;;
34900;SDS011;21112;51.976;5.660;2022-12-07T13:20:39;3.95;;;1.10;;
34900;SDS011;21112;51.976;5.660;2022-12-07T13:23:09;3.95;;;0.95;;
34900;SDS011;21112;51.976;5.660;2022-12-07T13:25:37;2.17;;;0.73;;
34900;SDS011;21112;51.976;5.660;2022-12-07T13:28:13;5.25;;;0.98;;
34900;SDS011;21112;51.976;5.660;2022-12-07T13:30:43;1.90;;;0.80;;
34900;SDS011;21112;51.976;5.660;2022-12-07T13:33:17;3.30;;;0.73;;
34900;SDS011;21112;51.976;5.660;2022-12-07T13:35:48;4.97;;;0.85;;
34900;SDS011;21112;51.976;5.660;2022-12-07T13:38:22;4.75;;;0.90;;
34900;SDS011;21112;51.976;5.660;2022-12-07T13:40:59;5.35;;;1.00;;
34900;SDS011;21112;51.976;5.660;2022-12-07T13:43:28;3.30;;;1.10;;
34900;SDS011;21112;51.976;5.660;2022-12-07T13:45:56;1.73;;;0.82;;
34900;SDS011;21112;51.976;5.660;2022-12-07T13:48:27;3.20;;;0.80;;
34900;SDS011;21112;51.976;5.660;2022-12-07T13:51:02;5.22;;;0.70;;
34900;SDS011;21112;51.976;5.660;2022-12-07T13:53:45;3.28;;;0.77;;
34900;SDS011;21112;51.976;5.660;2022-12-07T13:56:14;2.03;;;0.80;;
34900;SDS011;21112;51.976;5.660;2022-12-07T13:58:42;5.07;;;0.85;;
34900;SDS011;21112;51.976;5.660;2022-12-07T14:01:15;5.75;;;1.02;;
34900;SDS011;21112;51.976;5.660;2022-12-07T14:03:42;1.85;;;0.60;;
34900;SDS011;21112;51.976;5.660;2022-12-07T14:06:22;2.13;;;0.75;;
34900;SDS011;21112;51.976;5.660;2022-12-07T14:09:08;2.58;;;0.68;;
34900;SDS011;21112;51.976;5.660;2022-12-07T14:11:37;2.20;;;0.65;;
34900;SDS011;21112;51.976;5.660;2022-12-07T14:14:05;1.38;;;0.60;;
34900;SDS011;21112;51.976;5.660;2022-12-07T14:16:37;1.38;;;0.60;;
34900;SDS011;21112;51.976;5.660;2022-12-07T14:22:08;2.38;;;1.17;;
34900;SDS011;21112;51.976;5.660;2022-12-07T14:24:41;0.60;;;0.40;;
34900;SDS011;21112;51.976;5.660;2022-12-07T14:27:15;0.75;;;0.55;;
34900;SDS011;21112;51.976;5.660;2022-12-07T14:29:45;3.38;;;0.70;;
34900;SDS011;21112;51.976;5.660;2022-12-07T14:32:19;2.35;;;0.70;;
34900;SDS011;21112;51.976;5.660;2022-12-07T14:34:59;4.38;;;0.73;;
34900;SDS011;21112;51.976;5.660;2022-12-07T14:37:28;1.58;;;0.57;;
34900;SDS011;21112;51.976;5.660;2022-12-07T14:39:55;1.98;;;0.90;;
34900;SDS011;21112;51.976;5.660;2022-12-07T14:42:23;2.90;;;0.80;;
34900;SDS011;21112;51.976;5.660;2022-12-07T14:44:50;1.67;;;0.70;;
34900;SDS011;21112;51.976;5.660;2022-12-07T14:47:18;3.08;;;0.50;;
34900;SDS011;21112;51.976;5.660;2022-12-07T14:49:44;1.65;;;0.55;;
34900;SDS011;21112;51.976;5.660;2022-12-07T14:52:13;1.50;;;0.63;;
34900;SDS011;21112;51.976;5.660;2022-12-07T14:54:44;4.65;;;0.63;;
34900;SDS011;21112;51.976;5.660;2022-12-07T14:57:13;1.60;;;0.65;;
34900;SDS011;21112;51.976;5.660;2022-12-07T14:59:41;0.93;;;0.55;;
34900;SDS011;21112;51.976;5.660;2022-12-07T15:02:10;1.45;;;0.70;;
34900;SDS011;21112;51.976;5.660;2022-12-07T15:04:43;1.73;;;0.75;;
34900;SDS011;21112;51.976;5.660;2022-12-07T15:07:13;2.95;;;1.40;;
34900;SDS011;21112;51.976;5.660;2022-12-07T15:09:45;3.78;;;1.08;;
34900;SDS011;21112;51.976;5.660;2022-12-07T15:12:12;5.15;;;1.15;;
34900;SDS011;21112;51.976;5.660;2022-12-07T15:14:40;2.58;;;1.17;;
34900;SDS011;21112;51.976;5.660;2022-12-07T15:17:08;3.80;;;1.13;;
34900;SDS011;21112;51.976;5.660;2022-12-07T15:19:36;2.63;;;0.93;;
34900;SDS011;21112;51.976;5.660;2022-12-07T15:22:03;2.50;;;0.90;;
34900;SDS011;21112;51.976;5.660;2022-12-07T15:24:29;7.78;;;1.05;;
34900;SDS011;21112;51.976;5.660;2022-12-07T15:26:59;3.60;;;1.10;;
34900;SDS011;21112;51.976;5.660;2022-12-07T15:29:25;3.40;;;1.10;;
34900;SDS011;21112;51.976;5.660;2022-12-07T15:31:52;2.08;;;0.88;;
34900;SDS011;21112;51.976;5.660;2022-12-07T15:34:23;2.97;;;1.05;;
34900;SDS011;21112;51.976;5.660;2022-12-07T16:13:45;2.08;;;0.95;;
34900;SDS011;21112;51.976;5.660;2022-12-07T18:43:18;2.05;;;0.82;;
34900;SDS011;21112;51.976;5.660;2022-12-07T18:54:15;4.75;;;1.52;;
34900;SDS011;21112;51.976;5.660;2022-12-07T19:48:06;3.35;;;1.25;;
34900;SDS011;21112;51.976;5.660;2022-12-07T20:15:54;2.65;;;1.27;;
34900;SDS011;21112;51.976;5.660;2022-12-07T20:18:21;2.58;;;1.40;;
34900;SDS011;21112;51.976;5.660;2022-12-07T20:20:51;4.82;;;1.65;;
34900;SDS011;21112;51.976;5.660;2022-12-07T20:23:18;4.57;;;1.73;;
34900;SDS011;21112;51.976;5.660;2022-12-07T20:25:45;4.00;;;1.83;;
34900;SDS011;21112;51.976;5.660;2022-12-07T20:28:11;3.03;;;1.30;;
34900;SDS011;21112;51.976;5.660;2022-12-07T20:30:44;3.10;;;1.40;;
34900;SDS011;21112;51.976;5.660;2022-12-07T20:33:12;2.83;;;1.40;;
34900;SDS011;21112;51.976;5.660;2022-12-07T20:35:39;5.50;;;1.83;;
34900;SDS011;21112;51.976;5.660;2022-12-07T20:38:07;5.22;;;1.67;;
34900;SDS011;21112;51.976;5.660;2022-12-07T20:40:33;5.15;;;1.60;;
34900;SDS011;21112;51.976;5.660;2022-12-07T20:43:00;4.43;;;1.73;;
34900;SDS011;21112;51.976;5.660;2022-12-07T20:45:26;4.25;;;1.90;;
34900;SDS011;21112;51.976;5.660;2022-12-07T20:47:53;5.47;;;1.80;;
34900;SDS011;21112;51.976;5.660;2022-12-07T20:50:21;4.80;;;1.80;;
34900;SDS011;21112;51.976;5.660;2022-12-07T20:52:48;4.63;;;1.70;;
34900;SDS011;21112;51.976;5.660;2022-12-07T20:55:15;5.07;;;1.90;;